createdAt,value
2022-08-25T00:04:02.118Z,55
2022-08-25T00:14:03.838Z,56
2022-08-25T00:24:06.338Z,58
2022-08-25T00:34:08.726Z,59
2022-08-25T00:44:11.294Z,60
2022-08-25T00:54:13.039Z,61
2022-08-25T01:04:15.013Z,62
2022-08-25T01:14:16.714Z,62
2022-08-25T01:17:11.236Z,62
2022-08-25T01:24:28.437Z,62
2022-08-25T01:34:30.836Z,62
2022-08-25T01:44:32.528Z,64
2022-08-25T01:54:34.566Z,65
2022-08-25T02:04:37.201Z,64
2022-08-25T02:14:38.905Z,65
2022-08-25T02:24:40.740Z,65
2022-08-25T02:34:42.716Z,66
2022-08-25T02:54:46.357Z,67
2022-08-25T03:14:50.969Z,67
2022-08-25T03:24:52.738Z,67
2022-08-25T03:34:55.283Z,68
2022-08-25T03:44:57.525Z,68
2022-08-25T03:54:59.385Z,68
2022-08-25T04:05:01.775Z,69
2022-08-25T04:15:03.811Z,69
2022-08-25T04:25:05.611Z,70
2022-08-25T04:35:07.365Z,70
2022-08-25T04:45:09.482Z,71
2022-08-25T04:55:11.210Z,72
2022-08-25T05:05:12.922Z,71
2022-08-25T05:15:15.601Z,71
2022-08-25T05:25:18.151Z,72
2022-08-25T05:35:20.198Z,71
2022-08-25T05:45:22.885Z,69
2022-08-25T06:05:26.750Z,67
2022-08-25T06:15:28.439Z,66
2022-08-25T06:25:30.579Z,65
2022-08-25T06:35:32.876Z,64
2022-08-25T06:45:34.821Z,64
2022-08-25T06:55:37.273Z,63
2022-08-25T07:05:43.377Z,61
2022-08-25T07:15:41.894Z,59
2022-08-25T07:25:44.554Z,58
2022-08-25T07:35:46.470Z,57
2022-08-25T07:45:49.321Z,56
2022-08-25T07:55:51.042Z,53
2022-08-25T08:05:53.398Z,51
2022-08-25T08:15:56.064Z,49
2022-08-25T08:25:58.511Z,48
2022-08-25T08:36:04.824Z,47
2022-08-25T08:46:03.785Z,47
2022-08-25T09:06:07.571Z,45
2022-08-25T09:16:10.001Z,45
2022-08-25T09:26:11.885Z,44
2022-08-25T09:36:13.932Z,43
2022-08-25T09:46:16.159Z,41
2022-08-25T09:56:18.053Z,39
2022-08-25T10:06:20.422Z,38
2022-08-25T10:16:24.734Z,38
2022-08-25T10:26:24.669Z,39
2022-08-25T10:36:26.748Z,37
2022-08-25T10:46:29.401Z,37
2022-08-25T10:56:31.331Z,36
2022-08-25T11:06:33.385Z,35
2022-08-25T11:26:38.219Z,34
2022-08-25T11:36:40.136Z,34
2022-08-25T11:46:41.871Z,32
2022-08-25T11:56:44.411Z,33
2022-08-25T13:06:59.198Z,29
2022-08-25T13:17:01.088Z,29
2022-08-25T13:27:03.077Z,29
2022-08-25T13:57:10.104Z,29
2022-08-25T14:27:16.304Z,28
2022-08-25T14:37:18.314Z,28
2022-08-25T14:47:20.603Z,28
2022-08-25T14:57:23.186Z,30
2022-08-25T15:07:24.909Z,29
2022-08-25T15:57:36.945Z,29
2022-08-25T16:17:42.903Z,29
2022-08-25T16:37:44.375Z,29
2022-08-25T16:47:46.537Z,30
2022-08-25T16:57:49.431Z,30
2022-08-25T17:07:50.919Z,32
2022-08-25T17:17:53.161Z,32
2022-08-25T17:27:54.848Z,33
2022-08-25T17:37:56.874Z,33
2022-08-25T17:47:58.814Z,34
2022-08-25T17:58:01.294Z,35
2022-08-25T18:08:03.939Z,35
2022-08-25T18:18:05.988Z,36
2022-08-25T18:28:08.164Z,37
2022-08-25T18:38:10.379Z,38
2022-08-25T18:48:12.695Z,38
2022-08-25T18:58:15.094Z,38
2022-08-25T19:08:18.375Z,40
2022-08-25T19:18:19.455Z,40
2022-08-25T19:28:21.332Z,41
2022-08-25T19:38:24.585Z,42
2022-08-25T19:48:25.816Z,42
2022-08-25T19:58:27.738Z,43
2022-08-25T20:08:30.097Z,44
2022-08-25T20:18:32.118Z,45
2022-08-25T20:28:34.593Z,45
2022-08-25T20:38:36.584Z,46
2022-08-25T20:48:38.510Z,47
2022-08-25T20:58:40.711Z,49
2022-08-25T21:08:45.171Z,50
2022-08-25T21:18:47.913Z,50
2022-08-25T21:28:47.495Z,51
2022-08-25T21:38:49.266Z,53
2022-08-25T21:48:51.157Z,54
2022-08-25T21:58:53.828Z,54
2022-08-25T22:08:56.371Z,55
2022-08-25T22:18:58.528Z,56
2022-08-25T22:29:00.863Z,56
2022-08-25T22:49:05.330Z,59
2022-08-25T22:59:06.919Z,60
2022-08-25T23:09:09.394Z,60
2022-08-25T23:19:11.331Z,61
2022-08-25T23:29:18.246Z,61
2022-08-25T23:39:15.963Z,62
2022-08-25T23:49:18.858Z,63
2022-08-25T23:59:24.097Z,65
